createdAt,value
2022-10-03T00:01:20.922Z,5.93
2022-10-03T00:04:05.738Z,5.55
2022-10-03T00:06:52.812Z,5.63
2022-10-03T00:09:29.890Z,5.57
2022-10-03T00:12:14.840Z,7.00
2022-10-03T00:14:49.634Z,6.30
2022-10-03T00:17:53.521Z,6.65
2022-10-03T00:20:46.128Z,6.72
2022-10-03T00:23:23.226Z,6.25
2022-10-03T00:26:23.147Z,7.68
2022-10-03T00:29:20.473Z,7.93
2022-10-03T00:31:56.190Z,7.60
2022-10-03T00:34:34.785Z,7.65
2022-10-03T00:37:32.261Z,7.22
2022-10-03T00:40:32.693Z,7.50
2022-10-03T00:43:17.819Z,7.13
2022-10-03T00:46:04.573Z,7.55
2022-10-03T00:49:08.404Z,7.47
2022-10-03T00:52:20.125Z,7.75
2022-10-03T00:55:13.641Z,7.45
2022-10-03T00:58:05.032Z,7.82
2022-10-03T01:00:34.241Z,7.75
2022-10-03T01:03:19.380Z,7.72
2022-10-03T01:06:14.971Z,7.80
2022-10-03T01:09:06.758Z,8.32
2022-10-03T01:12:01.525Z,7.20
2022-10-03T01:14:52.664Z,7.43
2022-10-03T01:17:31.704Z,8.73
2022-10-03T01:24:16.734Z,7.40
2022-10-03T01:29:43.757Z,7.32
2022-10-03T01:32:21.752Z,8.60
2022-10-03T01:34:54.493Z,7.88
2022-10-03T01:37:29.444Z,8.50
2022-10-03T01:40:26.165Z,8.00
2022-10-03T01:43:04.646Z,7.40
2022-10-03T01:45:43.129Z,6.90
2022-10-03T01:48:21.947Z,9.25
2022-10-03T01:50:59.777Z,9.20
2022-10-03T01:53:38.347Z,8.95
2022-10-03T01:56:21.077Z,7.93
2022-10-03T01:59:18.181Z,8.77
2022-10-03T02:01:52.858Z,8.30
2022-10-03T02:04:36.649Z,8.70
2022-10-03T02:07:28.320Z,7.75
2022-10-03T02:10:29.085Z,8.40
2022-10-03T02:13:30.504Z,7.60
2022-10-03T02:16:31.282Z,8.23
2022-10-03T02:19:10.745Z,7.80
2022-10-03T02:21:47.945Z,8.27
2022-10-03T02:24:14.297Z,7.78
2022-10-03T02:27:07.369Z,9.07
2022-10-03T02:30:03.632Z,8.00
2022-10-03T02:32:58.295Z,8.32
2022-10-03T02:36:02.632Z,8.00
2022-10-03T02:38:53.096Z,8.95
2022-10-03T02:41:28.299Z,8.93
2022-10-03T02:44:16.549Z,9.00
2022-10-03T02:47:10.629Z,9.65
2022-10-03T02:50:14.401Z,9.25
2022-10-03T02:52:51.216Z,9.93
2022-10-03T02:55:48.767Z,8.05
2022-10-03T02:58:56.936Z,8.27
2022-10-03T03:01:54.259Z,8.90
2022-10-03T03:04:31.910Z,7.28
2022-10-03T03:07:31.883Z,7.53
2022-10-03T03:10:38.402Z,7.85
2022-10-03T03:13:29.657Z,8.55
2022-10-03T03:16:26.770Z,6.60
2022-10-03T03:18:59.361Z,7.55
2022-10-03T03:21:39.097Z,7.78
2022-10-03T03:24:26.900Z,8.63
2022-10-03T03:27:23.980Z,7.43
2022-10-03T03:29:59.289Z,7.28
2022-10-03T03:32:56.855Z,7.63
2022-10-03T03:35:46.319Z,7.63
2022-10-03T03:38:21.893Z,7.32
2022-10-03T03:41:03.291Z,7.72
2022-10-03T03:43:45.411Z,6.97
2022-10-03T03:46:30.278Z,6.47
2022-10-03T03:49:08.074Z,9.05
2022-10-03T03:51:49.159Z,7.63
2022-10-03T03:54:52.905Z,9.27
2022-10-03T03:57:32.971Z,8.75
2022-10-03T04:00:16.763Z,7.63
2022-10-03T04:02:57.384Z,9.07
2022-10-03T04:05:50.155Z,8.43
2022-10-03T04:08:37.820Z,7.40
2022-10-03T04:11:19.500Z,7.75
2022-10-03T04:13:55.024Z,8.23
2022-10-03T04:16:54.742Z,8.20
2022-10-03T04:19:51.863Z,7.03
2022-10-03T04:22:57.512Z,9.38
2022-10-03T04:25:46.237Z,7.72
2022-10-03T04:28:50.449Z,8.25
2022-10-03T04:31:16.911Z,7.90
2022-10-03T04:34:07.998Z,7.88
2022-10-03T04:36:53.710Z,6.90
2022-10-03T04:39:34.724Z,9.18
2022-10-03T04:42:24.002Z,7.35
2022-10-03T04:45:01.211Z,8.60
2022-10-03T04:47:50.645Z,9.05
2022-10-03T04:50:38.793Z,9.07
2022-10-03T04:53:25.865Z,9.02
2022-10-03T04:56:17.932Z,8.10
2022-10-03T04:59:20.602Z,8.32
2022-10-03T05:01:55.525Z,10.88
2022-10-03T05:04:30.071Z,10.73
2022-10-03T05:07:14.682Z,9.82
2022-10-03T05:09:55.273Z,10.00
2022-10-03T05:12:32.268Z,10.65
2022-10-03T05:15:10.815Z,9.70
2022-10-03T05:17:48.453Z,9.27
2022-10-03T05:20:33.616Z,10.00
2022-10-03T05:23:29.563Z,10.60
2022-10-03T05:26:43.047Z,10.18
2022-10-03T05:29:09.776Z,9.98
2022-10-03T05:32:18.315Z,9.80
2022-10-03T05:34:56.600Z,9.50
2022-10-03T05:37:25.973Z,9.90
2022-10-03T05:39:59.640Z,9.38
2022-10-03T05:42:36.989Z,9.18
2022-10-03T05:45:30.259Z,10.02
2022-10-03T05:48:13.713Z,9.88
2022-10-03T05:51:13.516Z,8.95
2022-10-03T05:54:04.510Z,9.90
2022-10-03T05:56:40.164Z,9.55
2022-10-03T05:59:26.221Z,11.82
2022-10-03T06:02:13.828Z,9.73
2022-10-03T06:04:59.087Z,10.93
2022-10-03T06:07:40.905Z,11.25
2022-10-03T06:12:55.241Z,13.88
2022-10-03T06:15:39.449Z,13.80
2022-10-03T06:18:31.426Z,12.52
2022-10-03T06:21:23.157Z,15.80
2022-10-03T06:24:26.032Z,15.07
2022-10-03T06:27:17.617Z,15.15
2022-10-03T06:29:56.565Z,14.13
2022-10-03T06:32:25.810Z,14.15
2022-10-03T06:35:30.051Z,15.13
2022-10-03T06:38:25.749Z,14.23
2022-10-03T06:41:22.321Z,15.32
2022-10-03T06:44:11.376Z,15.02
2022-10-03T06:47:16.125Z,15.32
2022-10-03T06:50:08.992Z,15.25
2022-10-03T06:52:58.164Z,15.68
2022-10-03T06:55:27.791Z,13.38
2022-10-03T06:58:21.021Z,12.27
2022-10-03T07:01:12.695Z,13.68
2022-10-03T07:03:45.002Z,14.18
2022-10-03T07:06:51.242Z,13.68
2022-10-03T07:09:29.392Z,12.93
2022-10-03T07:12:01.946Z,12.27
2022-10-03T07:14:56.830Z,13.88
2022-10-03T07:17:47.745Z,13.63
2022-10-03T07:20:26.797Z,11.60
2022-10-03T07:23:19.548Z,12.05
2022-10-03T07:26:23.310Z,11.30
2022-10-03T07:29:15.665Z,12.18
2022-10-03T07:31:54.557Z,10.05
2022-10-03T07:34:45.836Z,11.60
2022-10-03T07:37:34.049Z,11.95
2022-10-03T07:40:16.765Z,10.65
2022-10-03T07:42:52.398Z,11.85
2022-10-03T07:46:06.297Z,11.77
2022-10-03T07:48:32.804Z,11.88
2022-10-03T07:51:17.149Z,11.85
2022-10-03T07:54:08.532Z,10.98
2022-10-03T07:57:16.877Z,11.45
2022-10-03T08:00:07.196Z,10.57
2022-10-03T08:02:47.463Z,11.48
2022-10-03T08:05:23.281Z,9.48
2022-10-03T08:08:32.243Z,8.63
2022-10-03T08:11:35.923Z,9.85
2022-10-03T08:14:20.784Z,10.13
2022-10-03T08:17:15.292Z,11.38
2022-10-03T08:20:00.533Z,11.23
2022-10-03T08:22:39.817Z,12.50
2022-10-03T08:25:15.745Z,10.35
2022-10-03T08:28:03.932Z,10.50
2022-10-03T08:30:53.583Z,10.88
2022-10-03T08:33:53.726Z,11.50
2022-10-03T08:36:32.261Z,11.93
2022-10-03T08:38:58.630Z,11.35
2022-10-03T08:41:54.283Z,10.52
2022-10-03T08:44:54.897Z,9.98
2022-10-03T08:47:46.854Z,10.05
2022-10-03T08:52:45.454Z,9.05
2022-10-03T08:55:14.900Z,8.98
2022-10-03T08:58:02.825Z,9.18
2022-10-03T09:00:45.404Z,7.97
2022-10-03T09:03:42.760Z,8.55
2022-10-03T09:06:52.836Z,8.70
2022-10-03T09:09:37.184Z,9.43
2022-10-03T09:12:18.877Z,9.68
2022-10-03T09:18:05.293Z,7.28
2022-10-03T09:21:06.969Z,7.20
2022-10-03T09:24:01.733Z,8.95
2022-10-03T09:26:49.888Z,7.43
2022-10-03T09:29:25.368Z,7.63
2022-10-03T09:32:26.502Z,7.35
2022-10-03T09:35:11.728Z,7.10
2022-10-03T09:38:15.657Z,6.75
2022-10-03T09:41:12.704Z,5.50
2022-10-03T09:43:54.376Z,5.15
2022-10-03T09:49:26.464Z,4.75
2022-10-03T09:52:18.169Z,5.23
2022-10-03T09:55:18.045Z,5.25
2022-10-03T09:57:56.627Z,5.65
2022-10-03T10:00:27.750Z,6.05
2022-10-03T10:03:11.888Z,5.85
2022-10-03T10:06:10.264Z,4.93
2022-10-03T10:08:55.196Z,5.00
2022-10-03T10:11:53.276Z,5.45
2022-10-03T10:14:38.365Z,5.57
2022-10-03T10:17:48.405Z,5.45
2022-10-03T10:20:53.396Z,6.38
2022-10-03T10:23:51.682Z,6.00
2022-10-03T10:26:29.440Z,5.70
2022-10-03T10:29:24.280Z,5.55
2022-10-03T10:32:24.002Z,5.35
2022-10-03T10:35:12.385Z,5.32
2022-10-03T10:37:57.009Z,5.40
2022-10-03T10:40:42.456Z,5.70
2022-10-03T10:43:33.946Z,5.18
2022-10-03T10:46:21.743Z,4.50
2022-10-03T10:49:12.524Z,5.53
2022-10-03T10:51:44.901Z,4.57
2022-10-03T10:54:36.100Z,5.00
2022-10-03T10:57:22.798Z,4.55
2022-10-03T11:00:17.634Z,4.43
2022-10-03T11:03:08.731Z,3.75
2022-10-03T11:06:12.945Z,4.38
2022-10-03T11:09:11.743Z,3.67
2022-10-03T11:12:08.648Z,4.03
2022-10-03T11:14:53.808Z,3.03
2022-10-03T11:18:03.951Z,3.25
2022-10-03T11:20:51.984Z,2.80
2022-10-03T11:23:55.824Z,3.03
2022-10-03T11:27:00.110Z,3.10
2022-10-03T11:29:57.672Z,3.15
2022-10-03T11:32:49.069Z,2.72
2022-10-03T11:35:28.198Z,3.00
2022-10-03T11:38:09.975Z,3.17
2022-10-03T11:43:34.097Z,3.10
2022-10-03T11:46:19.440Z,3.28
2022-10-03T11:49:01.628Z,3.05
2022-10-03T11:51:39.973Z,3.60
2022-10-03T11:54:31.141Z,3.88
2022-10-03T11:57:28.351Z,2.90
2022-10-03T12:00:20.027Z,2.75
2022-10-03T12:03:14.281Z,3.55
2022-10-03T12:06:17.117Z,3.67
2022-10-03T12:09:11.195Z,3.78
2022-10-03T12:12:19.355Z,3.70
2022-10-03T12:14:49.921Z,3.40
2022-10-03T12:17:29.329Z,4.07
2022-10-03T12:20:15.587Z,2.63
2022-10-03T12:22:53.175Z,3.90
2022-10-03T12:25:33.230Z,3.83
2022-10-03T12:28:12.456Z,3.30
2022-10-03T12:30:55.382Z,2.60
2022-10-03T12:33:29.353Z,2.60
2022-10-03T12:36:34.216Z,2.28
2022-10-03T12:39:29.408Z,2.30
2022-10-03T12:42:07.801Z,2.47
2022-10-03T12:45:02.274Z,2.60
2022-10-03T12:48:07.536Z,3.13
2022-10-03T12:50:39.809Z,3.40
2022-10-03T12:53:27.325Z,3.80
2022-10-03T12:56:12.024Z,3.85
2022-10-03T12:58:50.419Z,2.85
2022-10-03T13:01:37.957Z,4.90
2022-10-03T13:04:14.871Z,2.72
2022-10-03T13:07:09.496Z,3.30
2022-10-03T13:09:54.117Z,2.60
2022-10-03T13:12:34.538Z,3.10
2022-10-03T13:15:19.583Z,3.25
2022-10-03T13:18:09.774Z,3.50
2022-10-03T13:20:43.601Z,3.30
2022-10-03T13:23:21.102Z,2.88
2022-10-03T13:26:17.929Z,3.38
2022-10-03T13:29:13.081Z,3.97
2022-10-03T13:31:56.861Z,3.38
2022-10-03T13:34:28.353Z,2.80
2022-10-03T13:37:16.845Z,3.17
2022-10-03T13:39:54.513Z,3.55
2022-10-03T13:42:33.589Z,3.67
2022-10-03T13:45:14.279Z,3.10
2022-10-03T13:47:52.083Z,2.50
2022-10-03T13:50:40.972Z,3.17
2022-10-03T13:53:18.237Z,2.70
2022-10-03T13:55:52.867Z,2.78
2022-10-03T13:58:27.517Z,2.90
2022-10-03T14:01:13.275Z,2.67
2022-10-03T14:04:05.519Z,2.20
2022-10-03T14:06:37.723Z,2.17
2022-10-03T14:09:22.758Z,3.20
2022-10-03T14:12:51.105Z,3.10
2022-10-03T14:15:30.179Z,3.83
2022-10-03T14:18:08.517Z,2.95
2022-10-03T14:20:53.299Z,2.42
2022-10-03T14:23:32.417Z,2.78
2022-10-03T14:26:01.761Z,2.97
2022-10-03T14:28:41.241Z,2.40
2022-10-03T14:31:45.316Z,2.80
2022-10-03T14:34:33.296Z,3.13
2022-10-03T14:37:35.242Z,2.67
2022-10-03T14:42:50.035Z,3.47
2022-10-03T14:45:27.059Z,2.15
2022-10-03T14:47:58.971Z,2.50
2022-10-03T14:50:28.189Z,2.50
2022-10-03T14:53:04.535Z,2.63
2022-10-03T14:55:52.825Z,2.88
2022-10-03T14:58:29.302Z,2.53
2022-10-03T15:01:04.795Z,2.72
2022-10-03T15:03:38.075Z,2.38
2022-10-03T15:06:10.648Z,2.28
2022-10-03T15:08:45.339Z,2.50
2022-10-03T15:11:15.344Z,2.40
2022-10-03T15:13:54.813Z,2.10
2022-10-03T15:16:22.772Z,2.13
2022-10-03T15:19:04.896Z,2.28
2022-10-03T15:21:34.601Z,2.15
2022-10-03T15:24:04.989Z,2.45
2022-10-03T15:26:36.079Z,2.55
2022-10-03T15:29:06.374Z,2.30
2022-10-03T15:31:39.394Z,2.17
2022-10-03T15:34:17.273Z,2.22
2022-10-03T15:36:49.169Z,2.42
2022-10-03T15:39:28.562Z,3.33
2022-10-03T15:42:17.807Z,2.90
2022-10-03T15:44:51.544Z,2.95
2022-10-03T15:47:22.636Z,2.78
2022-10-03T15:49:59.425Z,2.38
2022-10-03T15:52:43.540Z,2.50
2022-10-03T15:55:20.261Z,2.20
2022-10-03T15:57:50.811Z,2.88
2022-10-03T16:00:24.544Z,2.75
2022-10-03T16:02:57.760Z,2.42
2022-10-03T16:05:27.057Z,2.70
2022-10-03T16:08:05.092Z,2.55
2022-10-03T16:10:38.674Z,2.75
2022-10-03T16:13:36.545Z,2.63
2022-10-03T16:16:13.231Z,2.38
2022-10-03T16:18:48.539Z,2.45
2022-10-03T16:21:36.686Z,2.63
2022-10-03T16:24:05.896Z,2.67
2022-10-03T16:26:49.346Z,3.30
2022-10-03T16:29:27.924Z,3.65
2022-10-03T16:32:01.387Z,3.80
2022-10-03T16:34:31.028Z,2.85
2022-10-03T16:36:59.138Z,3.30
2022-10-03T16:39:32.305Z,3.35
2022-10-03T16:42:00.785Z,2.70
2022-10-03T16:44:55.431Z,2.80
2022-10-03T16:47:36.429Z,3.20
2022-10-03T16:50:23.036Z,3.15
2022-10-03T16:52:53.017Z,3.33
2022-10-03T16:55:31.830Z,3.15
2022-10-03T16:58:09.764Z,3.33
2022-10-03T17:01:15.139Z,3.85
2022-10-03T17:03:46.735Z,4.20
2022-10-03T17:06:23.409Z,4.30
2022-10-03T17:08:52.880Z,3.88
2022-10-03T17:11:22.020Z,3.65
2022-10-03T17:13:52.298Z,3.50
2022-10-03T17:16:30.688Z,3.28
2022-10-03T17:19:17.315Z,3.55
2022-10-03T17:21:53.854Z,3.83
2022-10-03T17:24:38.461Z,3.95
2022-10-03T17:27:20.544Z,3.88
2022-10-03T17:29:53.772Z,5.68
2022-10-03T17:32:37.110Z,5.50
2022-10-03T17:35:15.456Z,5.15
2022-10-03T17:38:03.914Z,6.22
2022-10-03T17:41:04.034Z,6.22
2022-10-03T17:43:40.869Z,5.38
2022-10-03T17:46:31.134Z,5.68
2022-10-03T17:49:06.063Z,6.00
2022-10-03T17:51:38.812Z,5.22
2022-10-03T17:54:26.735Z,5.68
2022-10-03T17:57:15.613Z,5.40
2022-10-03T18:00:06.841Z,4.93
2022-10-03T18:02:54.738Z,5.50
2022-10-03T18:05:43.178Z,4.68
2022-10-03T18:08:28.189Z,4.57
2022-10-03T18:10:57.368Z,5.03
2022-10-03T18:13:43.287Z,7.25
2022-10-03T18:16:36.455Z,6.25
2022-10-03T18:19:21.498Z,5.55
2022-10-03T18:22:14.109Z,5.80
2022-10-03T18:24:44.998Z,8.40
2022-10-03T18:27:51.345Z,5.85
2022-10-03T18:30:24.337Z,5.88
2022-10-03T18:32:53.364Z,5.70
2022-10-03T18:35:23.337Z,5.80
2022-10-03T18:37:55.223Z,6.30
2022-10-03T18:40:36.103Z,6.28
2022-10-03T18:43:05.868Z,6.55
2022-10-03T18:45:44.419Z,6.50
2022-10-03T18:48:17.443Z,6.20
2022-10-03T18:50:55.988Z,6.05
2022-10-03T18:53:34.873Z,5.38
2022-10-03T18:56:10.174Z,6.13
2022-10-03T18:58:46.172Z,6.35
2022-10-03T19:01:19.929Z,6.72
2022-10-03T19:04:00.517Z,6.75
2022-10-03T19:06:37.604Z,6.45
2022-10-03T19:09:26.064Z,6.55
2022-10-03T19:12:19.513Z,7.50
2022-10-03T19:15:07.644Z,7.35
2022-10-03T19:17:48.124Z,6.53
2022-10-03T19:20:28.429Z,6.22
2022-10-03T19:23:05.584Z,6.55
2022-10-03T19:25:37.186Z,4.90
2022-10-03T19:28:14.135Z,5.97
2022-10-03T19:30:42.893Z,5.50
2022-10-03T19:33:21.700Z,5.50
2022-10-03T19:35:52.577Z,4.72
2022-10-03T19:38:30.492Z,5.23
2022-10-03T19:41:25.382Z,5.32
2022-10-03T19:43:52.030Z,5.47
2022-10-03T19:46:34.808Z,6.22
2022-10-03T19:49:31.139Z,6.32
2022-10-03T19:52:34.200Z,6.05
2022-10-03T19:55:05.041Z,5.22
2022-10-03T19:57:37.224Z,6.00
2022-10-03T20:00:21.180Z,6.22
2022-10-03T20:03:06.398Z,6.68
2022-10-03T20:05:42.261Z,6.78
2022-10-03T20:08:40.544Z,6.43
2022-10-03T20:11:17.404Z,6.28
2022-10-03T20:13:47.836Z,5.70
2022-10-03T20:16:21.769Z,6.22
2022-10-03T20:19:03.389Z,6.32
2022-10-03T20:21:30.189Z,6.25
2022-10-03T20:23:58.294Z,6.40
2022-10-03T20:26:35.915Z,6.47
2022-10-03T20:29:18.501Z,5.97
2022-10-03T20:31:46.609Z,5.55
2022-10-03T20:34:24.399Z,5.47
2022-10-03T20:37:14.493Z,5.05
2022-10-03T20:39:45.161Z,5.63
2022-10-03T20:42:25.081Z,5.07
2022-10-03T20:45:02.344Z,4.88
2022-10-03T20:47:48.588Z,4.88
2022-10-03T20:50:32.254Z,5.30
2022-10-03T20:53:02.040Z,4.75
2022-10-03T20:55:38.281Z,5.32
2022-10-03T20:58:23.559Z,5.53
2022-10-03T21:00:58.927Z,6.22
2022-10-03T21:03:31.959Z,5.50
2022-10-03T21:05:59.817Z,5.85
2022-10-03T21:08:29.879Z,6.07
2022-10-03T21:10:59.998Z,6.50
2022-10-03T21:13:32.370Z,6.57
2022-10-03T21:16:01.138Z,5.70
2022-10-03T21:18:35.729Z,6.10
2022-10-03T21:21:05.392Z,6.13
2022-10-03T21:23:36.798Z,5.28
2022-10-03T21:26:06.410Z,4.90
2022-10-03T21:28:35.473Z,5.60
2022-10-03T21:31:30.888Z,4.80
2022-10-03T21:34:16.837Z,5.80
2022-10-03T21:36:46.213Z,5.68
2022-10-03T21:39:31.355Z,5.68
2022-10-03T21:42:15.912Z,5.80
2022-10-03T21:44:52.299Z,7.07
2022-10-03T21:47:33.020Z,6.13
2022-10-03T21:50:07.446Z,6.30
2022-10-03T21:52:53.685Z,5.75
2022-10-03T21:55:50.798Z,5.72
2022-10-03T21:58:42.729Z,5.90
2022-10-03T22:01:16.991Z,5.80
2022-10-03T22:03:55.373Z,5.70
2022-10-03T22:06:25.615Z,5.70
2022-10-03T22:08:53.392Z,5.28
2022-10-03T22:11:28.629Z,5.20
2022-10-03T22:14:10.236Z,5.97
2022-10-03T22:17:03.087Z,5.47
2022-10-03T22:19:52.619Z,6.15
2022-10-03T22:22:24.769Z,5.57
2022-10-03T22:25:06.273Z,5.15
2022-10-03T22:27:43.260Z,5.65
2022-10-03T22:30:14.703Z,5.95
2022-10-03T22:32:59.232Z,5.35
2022-10-03T22:35:50.749Z,5.13
2022-10-03T22:38:22.069Z,5.53
2022-10-03T22:40:51.374Z,5.40
2022-10-03T22:43:18.877Z,5.10
2022-10-03T22:45:49.870Z,5.07
2022-10-03T22:48:25.266Z,5.47
2022-10-03T22:50:53.824Z,5.63
2022-10-03T22:53:25.405Z,5.18
2022-10-03T22:55:55.791Z,5.15
2022-10-03T22:58:24.404Z,5.68
2022-10-03T23:00:53.792Z,5.90
2022-10-03T23:03:26.656Z,5.68
2022-10-03T23:05:55.813Z,5.53
2022-10-03T23:08:22.148Z,6.60
2022-10-03T23:10:54.783Z,6.38
2022-10-03T23:13:40.007Z,5.80
2022-10-03T23:16:06.681Z,5.88
2022-10-03T23:18:45.477Z,6.60
2022-10-03T23:21:12.630Z,6.85
2022-10-03T23:23:56.005Z,6.75
2022-10-03T23:26:40.763Z,7.35
2022-10-03T23:29:12.913Z,6.07
2022-10-03T23:31:58.767Z,6.30
2022-10-03T23:34:37.099Z,6.07
2022-10-03T23:37:16.078Z,6.32
2022-10-03T23:40:04.187Z,6.22
2022-10-03T23:42:30.528Z,6.80
2022-10-03T23:45:11.908Z,6.90
2022-10-03T23:47:50.635Z,6.47
2022-10-03T23:50:22.712Z,7.15
2022-10-03T23:52:52.757Z,7.43
2022-10-03T23:55:34.865Z,6.80
2022-10-03T23:58:02.272Z,6.35
